Portada
METAR-TAF:

METAR-TAF

Aeroports :

Indore, Índia

latitud: 22-43N, longitud: 075-48E, altitud: 561 m

Observació

L'informe es va fer fa 1 hora i 31 minuts, a les 04:00 UTC
Vent 6 kt del Nord-Oest
Temperatura 29°C
Humitat 74%
Pressió 1013 hPa
Visibilitat: 5000 m
calitja

METAR: VAID 010400Z 31006KT 5000 HZ NSC 29/24 Q1013 NOSIG

Hora: 11:01 (05:31 UTC)

Pronòstic

L'informe es va fer fa 6 hores i 31 minuts, a les 23:00 UTC
Pronòstic vàlid del 30 a les 00 UTC al 30 a les 09 UTC
Vent 5 kt del Nord/Nord-Est
Visibilitat: 2500 m
Escasses núvols a una alçada de 2500 ft
boirina, calitja
Evolucionant progressivament
l' 30 a les 04 UTC al 30 a les 06 UTC
Visibilitat: 4000 m
calitja
Evolucionant progressivament
l' 30 a les 07 UTC al 30 a les 09 UTC
Vent 5 kt del Nord-Est
Visibilitat: 5000 m
Escasses núvols a una alçada de 2000 ft
Núvols disperses a una alçada de 2500 ft
calitja

TAF: VAID 292300Z 3000/3009 02005KT 2500 BR HZ FEW025 BECMG 3004/3006 4000 HZ BECMG 3007/3009 05005KT 5000 HZ FEW020 SCT025

Observacions i pronòstics meteorològics de més de 4000 aeroports (METAR i TAF).

Les estacions disponibles són els punts grocs i vermells al mapa.

Posi el ratolí al punt desitjat per veure el nom de l'estació.

Feu clic per veure les observacions i els pronòstics meteorològics.

Per canviar el mapa: feu clic els botons verds amb una creu de color negre per apropar; al botó verd amb un guió per allunyar la imatge; o en les fletxes verdes per a mapes adjacents.


METAR-TAF: